createdAt,value
2022-10-14T00:01:27.963Z,28.15
2022-10-14T00:03:56.575Z,25.70
2022-10-14T00:06:28.540Z,29.83
2022-10-14T00:08:57.882Z,30.02
2022-10-14T00:11:29.705Z,31.55
2022-10-14T00:14:01.044Z,30.85
2022-10-14T00:16:35.426Z,29.52
2022-10-14T00:19:04.938Z,28.00
2022-10-14T00:21:34.692Z,27.67
2022-10-14T00:24:03.353Z,26.92
2022-10-14T00:26:35.081Z,29.05
2022-10-14T00:29:06.606Z,28.02
2022-10-14T00:31:37.246Z,27.92
2022-10-14T00:34:05.997Z,30.33
2022-10-14T00:36:35.171Z,28.27
2022-10-14T00:39:03.827Z,29.73
2022-10-14T00:41:36.235Z,31.38
2022-10-14T00:44:07.505Z,28.38
2022-10-14T00:46:41.045Z,27.88
2022-10-14T00:49:14.510Z,26.23
2022-10-14T00:51:46.664Z,25.90
2022-10-14T00:54:18.727Z,25.55
2022-10-14T00:56:49.278Z,25.52
2022-10-14T00:59:18.873Z,27.88
2022-10-14T01:01:48.692Z,28.50
2022-10-14T01:04:18.536Z,31.20
2022-10-14T01:07:03.440Z,33.08
2022-10-14T01:09:36.408Z,29.95
2022-10-14T01:12:35.351Z,28.98
2022-10-14T01:15:18.038Z,28.25
2022-10-14T01:18:02.832Z,28.13
2022-10-14T01:20:46.531Z,27.45
2022-10-14T01:23:39.836Z,26.83
2022-10-14T01:26:30.323Z,25.73
2022-10-14T01:29:21.591Z,28.30
2022-10-14T01:32:01.192Z,23.83
2022-10-14T01:34:44.036Z,25.60
2022-10-14T01:37:20.370Z,25.90
2022-10-14T01:39:56.371Z,26.65
2022-10-14T01:42:27.520Z,25.02
2022-10-14T01:45:02.534Z,26.25
2022-10-14T01:47:36.667Z,25.75
2022-10-14T01:50:13.863Z,28.88
2022-10-14T01:52:48.520Z,29.75
2022-10-14T01:55:22.216Z,24.20
2022-10-14T01:57:54.607Z,28.83
2022-10-14T02:00:23.436Z,26.65
2022-10-14T02:02:53.088Z,25.95
2022-10-14T02:05:30.279Z,29.70
2022-10-14T02:08:08.554Z,34.13
2022-10-14T02:11:02.196Z,29.50
2022-10-14T02:13:57.686Z,30.90
2022-10-14T02:16:39.090Z,28.77
2022-10-14T02:19:27.208Z,30.77
2022-10-14T02:22:02.966Z,29.20
2022-10-14T02:24:37.730Z,27.60
2022-10-14T02:27:12.081Z,29.63
2022-10-14T02:29:45.860Z,31.95
2022-10-14T02:32:20.319Z,31.55
2022-10-14T02:34:58.021Z,30.55
2022-10-14T02:37:28.826Z,29.40
2022-10-14T02:40:06.107Z,30.92
2022-10-14T02:42:35.003Z,30.70
2022-10-14T02:45:07.660Z,29.52
2022-10-14T02:47:36.350Z,28.73
2022-10-14T02:50:07.060Z,29.13
2022-10-14T02:52:35.565Z,27.58
2022-10-14T02:55:03.990Z,24.92
2022-10-14T02:57:32.298Z,31.77
2022-10-14T03:00:00.559Z,27.13
2022-10-14T03:02:29.660Z,30.10
2022-10-14T03:05:00.040Z,26.63
2022-10-14T03:07:31.683Z,28.73
2022-10-14T03:10:04.907Z,29.05
2022-10-14T03:12:36.866Z,26.27
2022-10-14T03:15:07.175Z,24.60
2022-10-14T03:17:36.651Z,23.92
2022-10-14T03:20:08.472Z,23.02
2022-10-14T03:22:46.240Z,26.80
2022-10-14T03:25:15.133Z,24.40
2022-10-14T03:27:57.584Z,25.90
2022-10-14T03:30:38.449Z,31.33
2022-10-14T03:33:15.104Z,28.65
2022-10-14T03:36:02.890Z,26.92
2022-10-14T03:38:45.352Z,28.25
2022-10-14T03:41:23.712Z,31.40
2022-10-14T03:43:53.945Z,27.23
2022-10-14T03:46:22.730Z,28.33
2022-10-14T03:48:53.886Z,25.77
2022-10-14T03:51:22.644Z,28.98
2022-10-14T03:53:52.413Z,29.15
2022-10-14T03:56:29.197Z,25.73
2022-10-14T03:58:57.590Z,25.48
2022-10-14T04:01:27.125Z,33.90
2022-10-14T04:04:16.125Z,29.95
2022-10-14T04:06:44.805Z,32.53
2022-10-14T04:09:15.037Z,32.60
2022-10-14T04:11:44.053Z,31.90
2022-10-14T04:14:29.681Z,31.60
2022-10-14T04:16:59.422Z,29.35
2022-10-14T04:19:29.362Z,27.85
2022-10-14T04:21:58.050Z,31.80
2022-10-14T04:24:30.556Z,33.95
2022-10-14T04:27:00.944Z,31.50
2022-10-14T04:29:53.823Z,33.00
2022-10-14T04:32:29.859Z,36.28
2022-10-14T04:34:58.774Z,34.85
2022-10-14T04:37:32.028Z,31.05
2022-10-14T04:40:25.630Z,37.05
2022-10-14T04:42:59.222Z,35.25
2022-10-14T04:45:33.760Z,35.55
2022-10-14T04:48:05.526Z,33.75
2022-10-14T04:50:39.719Z,38.72
2022-10-14T04:53:27.971Z,34.08
2022-10-14T04:56:14.609Z,33.70
2022-10-14T04:58:53.965Z,35.92
2022-10-14T05:01:26.589Z,35.40
2022-10-14T05:03:59.346Z,35.10
2022-10-14T05:06:27.998Z,34.95
2022-10-14T05:08:57.816Z,33.38
2022-10-14T05:11:29.906Z,31.60
2022-10-14T05:14:00.042Z,33.22
2022-10-14T05:16:31.373Z,34.42
2022-10-14T05:18:59.764Z,32.47
2022-10-14T05:21:29.679Z,30.30
2022-10-14T05:24:11.195Z,31.80
2022-10-14T05:26:43.420Z,34.35
2022-10-14T05:29:15.008Z,32.05
2022-10-14T05:31:45.188Z,30.42
2022-10-14T05:34:27.173Z,33.10
2022-10-14T05:36:57.699Z,29.55
2022-10-14T05:39:27.221Z,27.77
2022-10-14T05:41:59.046Z,28.98
2022-10-14T05:44:30.622Z,29.65
2022-10-14T05:47:00.438Z,33.65
2022-10-14T05:49:29.296Z,32.17
2022-10-14T05:51:59.883Z,28.00
2022-10-14T05:54:28.739Z,30.40
2022-10-14T05:57:00.297Z,26.98
2022-10-14T05:59:30.266Z,30.98
2022-10-14T06:01:59.713Z,30.52
2022-10-14T06:04:29.022Z,28.25
2022-10-14T06:06:59.689Z,26.55
2022-10-14T06:09:28.392Z,26.20
2022-10-14T06:11:56.727Z,27.55
2022-10-14T06:14:26.555Z,25.38
2022-10-14T06:16:55.755Z,26.25
2022-10-14T06:19:25.649Z,24.10
2022-10-14T06:21:54.448Z,26.95
2022-10-14T06:24:23.060Z,25.63
2022-10-14T06:26:51.784Z,25.58
2022-10-14T06:29:20.374Z,25.95
2022-10-14T06:31:50.279Z,23.10
2022-10-14T06:34:22.707Z,25.40
2022-10-14T06:36:51.090Z,25.17
2022-10-14T06:39:19.788Z,28.13
2022-10-14T06:41:48.401Z,28.70
2022-10-14T06:44:21.098Z,28.67
2022-10-14T06:46:50.856Z,28.40
2022-10-14T06:49:19.347Z,30.45
2022-10-14T06:51:47.692Z,29.30
2022-10-14T06:54:17.446Z,30.50
2022-10-14T06:56:46.119Z,32.25
2022-10-14T06:59:14.726Z,26.50
2022-10-14T07:01:43.407Z,29.17
2022-10-14T07:04:13.403Z,27.60
2022-10-14T07:06:41.853Z,24.30
2022-10-14T07:09:10.418Z,22.13
2022-10-14T07:11:39.053Z,20.60
2022-10-14T07:14:07.374Z,21.10
2022-10-14T07:16:35.804Z,20.85
2022-10-14T07:19:04.568Z,20.02
2022-10-14T07:21:34.313Z,21.65
2022-10-14T07:24:03.052Z,22.10
2022-10-14T07:26:32.139Z,23.20
2022-10-14T07:29:01.236Z,22.23
2022-10-14T07:31:30.021Z,21.52
2022-10-14T07:33:58.729Z,22.10
2022-10-14T07:36:27.419Z,21.25
2022-10-14T07:38:57.293Z,22.98
2022-10-14T07:41:26.778Z,21.70
2022-10-14T07:44:01.921Z,21.73
2022-10-14T07:46:32.419Z,20.92
2022-10-14T07:49:08.505Z,23.30
2022-10-14T07:51:37.648Z,21.70
2022-10-14T07:54:10.434Z,22.02
2022-10-14T07:56:39.623Z,21.95
2022-10-14T07:59:08.303Z,23.25
2022-10-14T08:01:37.454Z,21.80
2022-10-14T08:04:06.383Z,21.80
2022-10-14T08:06:35.049Z,20.92
2022-10-14T08:09:07.593Z,21.77
2022-10-14T08:11:37.594Z,20.02
2022-10-14T08:14:06.747Z,20.88
2022-10-14T08:16:37.237Z,18.95
2022-10-14T08:19:13.497Z,20.35
2022-10-14T08:21:43.787Z,20.15
2022-10-14T08:24:13.765Z,19.88
2022-10-14T08:26:50.955Z,19.35
2022-10-14T08:29:19.332Z,17.95
2022-10-14T08:31:47.940Z,18.90
2022-10-14T08:34:16.471Z,16.92
2022-10-14T08:36:45.189Z,17.92
2022-10-14T08:39:15.102Z,14.75
2022-10-14T08:42:05.776Z,15.85
2022-10-14T08:44:46.698Z,14.85
2022-10-14T08:47:18.051Z,13.90
2022-10-14T08:50:01.591Z,14.50
2022-10-14T08:52:37.889Z,12.90
2022-10-14T08:55:24.546Z,12.88
2022-10-14T08:57:58.785Z,13.80
2022-10-14T09:00:29.389Z,11.90
2022-10-14T09:03:01.129Z,12.93
2022-10-14T09:05:29.999Z,11.30
2022-10-14T09:07:59.623Z,11.80
2022-10-14T09:10:36.013Z,9.90
2022-10-14T09:13:12.998Z,10.63
2022-10-14T09:15:44.859Z,10.75
2022-10-14T09:18:25.311Z,10.15
2022-10-14T09:20:54.772Z,11.02
2022-10-14T09:23:25.347Z,10.68
2022-10-14T09:25:59.580Z,9.77
2022-10-14T09:28:38.277Z,9.52
2022-10-14T09:31:09.246Z,9.35
2022-10-14T09:33:42.309Z,10.73
2022-10-14T09:36:19.329Z,10.43
2022-10-14T09:38:51.634Z,10.13
2022-10-14T09:41:29.105Z,8.95
2022-10-14T09:44:25.486Z,9.25
2022-10-14T09:46:57.899Z,8.65
2022-10-14T09:49:39.117Z,9.45
2022-10-14T09:52:09.233Z,9.05
2022-10-14T09:54:37.977Z,8.70
2022-10-14T09:57:18.173Z,8.55
2022-10-14T09:59:56.109Z,8.18
2022-10-14T10:02:35.973Z,6.68
2022-10-14T10:05:14.864Z,6.10
2022-10-14T10:07:43.532Z,6.85
2022-10-14T10:10:22.008Z,6.55
2022-10-14T10:12:51.785Z,6.15
2022-10-14T10:15:22.564Z,6.30
2022-10-14T10:17:52.193Z,6.65
2022-10-14T10:20:28.582Z,6.38
2022-10-14T10:22:58.189Z,6.55
2022-10-14T10:25:28.578Z,6.60
2022-10-14T10:28:00.918Z,6.43
2022-10-14T10:30:34.000Z,7.10
2022-10-14T10:33:23.465Z,7.60
2022-10-14T10:36:02.456Z,7.63
2022-10-14T10:38:38.688Z,6.97
2022-10-14T10:41:23.647Z,7.00
2022-10-14T10:44:12.756Z,5.65
2022-10-14T10:47:07.814Z,6.10
2022-10-14T10:50:10.044Z,6.40
2022-10-14T10:52:54.213Z,6.22
2022-10-14T10:55:32.327Z,5.88
2022-10-14T10:58:12.511Z,5.75
2022-10-14T11:00:58.109Z,5.70
2022-10-14T11:03:52.363Z,5.90
2022-10-14T11:06:47.889Z,5.28
2022-10-14T11:09:47.864Z,5.32
2022-10-14T11:12:27.518Z,4.70
2022-10-14T11:15:31.205Z,4.45
2022-10-14T11:18:04.861Z,4.50
2022-10-14T11:20:49.738Z,4.40
2022-10-14T11:23:49.291Z,4.40
2022-10-14T11:26:41.528Z,4.30
2022-10-14T11:29:29.424Z,3.97
2022-10-14T11:32:11.217Z,3.90
2022-10-14T11:34:49.040Z,4.07
2022-10-14T11:37:33.297Z,3.95
2022-10-14T11:40:15.906Z,3.80
2022-10-14T11:43:02.851Z,3.10
2022-10-14T11:45:43.781Z,3.78
2022-10-14T11:48:28.905Z,3.85
2022-10-14T11:51:14.792Z,3.80
2022-10-14T11:54:01.004Z,3.40
2022-10-14T11:56:49.612Z,3.53
2022-10-14T11:59:40.404Z,3.83
2022-10-14T12:02:27.458Z,3.97
2022-10-14T12:05:03.611Z,3.30
2022-10-14T12:07:40.407Z,3.22
2022-10-14T12:10:25.743Z,3.28
2022-10-14T12:12:56.721Z,2.97
2022-10-14T12:15:28.086Z,3.33
2022-10-14T12:18:00.799Z,2.60
2022-10-14T12:20:40.136Z,3.00
2022-10-14T12:23:16.884Z,3.00
2022-10-14T12:25:56.871Z,2.38
2022-10-14T12:28:25.811Z,2.35
2022-10-14T12:31:14.497Z,3.03
2022-10-14T12:34:18.990Z,3.28
2022-10-14T12:36:50.778Z,2.80
2022-10-14T12:39:43.497Z,2.70
2022-10-14T12:42:15.923Z,2.92
2022-10-14T12:44:51.911Z,2.45
2022-10-14T12:47:23.529Z,2.30
2022-10-14T12:49:56.255Z,2.58
2022-10-14T12:52:30.780Z,2.33
2022-10-14T12:55:05.138Z,2.25
2022-10-14T12:57:38.699Z,2.20
2022-10-14T13:00:33.326Z,1.95
2022-10-14T13:03:04.413Z,2.25
2022-10-14T13:05:36.834Z,2.45
2022-10-14T13:08:15.494Z,2.15
2022-10-14T13:10:48.391Z,2.67
2022-10-14T13:13:52.889Z,2.60
2022-10-14T13:17:00.435Z,2.10
2022-10-14T13:19:44.572Z,2.28
2022-10-14T13:22:41.783Z,2.40
2022-10-14T13:25:29.589Z,2.10
2022-10-14T13:28:25.665Z,2.30
2022-10-14T13:31:06.242Z,2.30
2022-10-14T13:33:41.886Z,2.30
2022-10-14T13:36:19.870Z,2.25
2022-10-14T13:38:55.418Z,2.45
2022-10-14T13:41:30.737Z,2.30
2022-10-14T13:44:02.673Z,2.08
2022-10-14T13:46:36.535Z,1.95
2022-10-14T13:51:52.830Z,2.13
2022-10-14T13:54:24.216Z,2.10
2022-10-14T13:57:38.735Z,2.30
2022-10-14T14:02:53.828Z,1.90
2022-10-14T14:05:28.057Z,2.20
2022-10-14T14:08:31.697Z,1.75
2022-10-14T14:11:15.177Z,1.88
2022-10-14T14:13:58.934Z,1.77
2022-10-14T14:16:34.988Z,2.10
2022-10-14T14:19:09.563Z,1.80
2022-10-14T14:21:39.075Z,2.30
2022-10-14T14:24:19.884Z,1.95
2022-10-14T14:26:56.585Z,2.13
2022-10-14T14:29:29.974Z,2.05
2022-10-14T14:32:07.075Z,1.55
2022-10-14T14:34:38.629Z,1.80
2022-10-14T14:37:43.548Z,1.45
2022-10-14T14:39:59.886Z,1.80
2022-10-14T14:42:31.715Z,2.10
2022-10-14T14:45:06.398Z,2.05
2022-10-14T14:47:36.307Z,1.95
2022-10-14T14:50:29.077Z,1.85
2022-10-14T14:53:02.082Z,2.72
2022-10-14T14:55:44.939Z,2.40
2022-10-14T14:58:28.629Z,6.88
2022-10-14T15:00:57.870Z,3.05
2022-10-14T15:03:31.200Z,3.38
2022-10-14T15:06:03.439Z,1.70
2022-10-14T15:08:35.021Z,2.03
2022-10-14T15:11:03.802Z,1.70
2022-10-14T15:13:46.484Z,1.70
2022-10-14T15:16:15.251Z,3.67
2022-10-14T15:18:44.945Z,2.13
2022-10-14T15:21:19.818Z,2.30
2022-10-14T15:24:03.202Z,7.32
2022-10-14T15:26:36.231Z,9.23
2022-10-14T15:29:18.777Z,2.60
2022-10-14T15:32:03.659Z,2.90
2022-10-14T15:34:35.679Z,2.72
2022-10-14T15:37:04.355Z,2.55
2022-10-14T15:39:33.035Z,2.25
2022-10-14T15:42:01.723Z,3.35
2022-10-14T15:44:33.209Z,2.00
2022-10-14T15:47:19.260Z,7.70
2022-10-14T15:49:50.838Z,14.50
2022-10-14T15:52:22.983Z,19.83
2022-10-14T15:54:54.822Z,4.28
2022-10-14T15:57:23.812Z,6.18
2022-10-14T15:59:53.725Z,8.15
2022-10-14T16:02:33.776Z,3.20
2022-10-14T16:05:20.892Z,6.85
2022-10-14T16:07:50.704Z,4.88
2022-10-14T16:10:21.920Z,3.00
2022-10-14T16:12:51.001Z,2.40
2022-10-14T16:15:33.335Z,2.65
2022-10-14T16:18:01.905Z,2.00
2022-10-14T16:20:32.172Z,2.65
2022-10-14T16:23:04.272Z,2.20
2022-10-14T16:25:39.340Z,2.60
2022-10-14T16:28:10.270Z,3.25
2022-10-14T16:30:41.521Z,2.90
2022-10-14T16:35:50.338Z,3.22
2022-10-14T16:38:18.956Z,3.10
2022-10-14T16:40:54.334Z,3.60
2022-10-14T16:43:22.764Z,3.80
2022-10-14T16:45:51.378Z,2.83
2022-10-14T16:48:20.053Z,2.53
2022-10-14T16:50:53.540Z,2.33
2022-10-14T16:53:44.637Z,1.90
2022-10-14T16:56:37.070Z,2.80
2022-10-14T16:59:07.689Z,2.53
2022-10-14T17:01:37.275Z,2.70
2022-10-14T17:04:14.912Z,2.35
2022-10-14T17:06:44.610Z,3.38
2022-10-14T17:09:14.051Z,3.10
2022-10-14T17:11:43.096Z,3.35
2022-10-14T17:14:15.408Z,3.00
2022-10-14T17:16:44.278Z,5.80
2022-10-14T17:19:12.922Z,3.72
2022-10-14T17:21:41.561Z,2.83
2022-10-14T17:24:13.045Z,3.30
2022-10-14T17:26:41.687Z,2.85
2022-10-14T17:29:10.285Z,3.30
2022-10-14T17:31:38.966Z,2.75
2022-10-14T17:34:10.807Z,2.83
2022-10-14T17:36:40.189Z,3.05
2022-10-14T17:39:16.358Z,3.08
2022-10-14T17:41:51.083Z,3.50
2022-10-14T17:44:20.179Z,3.05
2022-10-14T17:46:48.794Z,2.70
2022-10-14T17:49:17.419Z,2.60
2022-10-14T17:51:46.019Z,2.70
2022-10-14T17:54:14.642Z,4.90
2022-10-14T17:56:43.454Z,3.17
2022-10-14T17:59:14.387Z,3.38
2022-10-14T18:02:01.476Z,2.83
2022-10-14T18:04:32.513Z,3.20
2022-10-14T18:07:01.544Z,2.63
2022-10-14T18:09:30.231Z,3.30
2022-10-14T18:12:14.244Z,3.80
2022-10-14T18:14:44.505Z,4.53
2022-10-14T18:17:14.250Z,6.53
2022-10-14T18:19:45.048Z,5.47
2022-10-14T18:22:16.977Z,5.30
2022-10-14T18:24:45.879Z,5.70
2022-10-14T18:27:14.521Z,4.68
2022-10-14T18:29:44.208Z,4.15
2022-10-14T18:32:12.878Z,4.38
2022-10-14T18:34:41.549Z,3.70
2022-10-14T18:37:10.235Z,4.10
2022-10-14T18:39:38.915Z,3.20
2022-10-14T18:42:07.704Z,3.58
2022-10-14T18:44:36.326Z,4.00
2022-10-14T18:47:06.898Z,3.95
2022-10-14T18:49:39.903Z,3.83
2022-10-14T18:52:09.682Z,3.60
2022-10-14T18:54:38.118Z,3.92
2022-10-14T18:57:06.460Z,3.40
2022-10-14T18:59:35.880Z,3.67
2022-10-14T19:02:06.649Z,4.25
2022-10-14T19:04:35.438Z,3.95
2022-10-14T19:07:04.283Z,4.00
2022-10-14T19:09:34.448Z,4.68
2022-10-14T19:12:24.099Z,4.72
2022-10-14T19:14:53.111Z,4.07
2022-10-14T19:17:23.277Z,3.78
2022-10-14T19:19:51.609Z,3.78
2022-10-14T19:22:20.434Z,3.88
2022-10-14T19:24:49.177Z,3.78
2022-10-14T19:27:17.868Z,3.83
2022-10-14T19:29:46.491Z,3.92
2022-10-14T19:32:14.832Z,3.45
2022-10-14T19:34:47.479Z,3.80
2022-10-14T19:37:15.964Z,3.60
2022-10-14T19:39:44.372Z,3.75
2022-10-14T19:42:12.776Z,3.50
2022-10-14T19:44:41.521Z,4.10
2022-10-14T19:47:10.214Z,4.45
2022-10-14T19:49:38.916Z,3.67
2022-10-14T19:52:09.027Z,3.92
2022-10-14T19:54:37.600Z,3.95
2022-10-14T19:57:06.300Z,4.53
2022-10-14T19:59:34.940Z,4.28
2022-10-14T20:02:03.290Z,4.63
2022-10-14T20:04:31.712Z,4.57
2022-10-14T20:07:00.396Z,4.30
2022-10-14T20:09:30.167Z,4.22
2022-10-14T20:11:58.882Z,4.75
2022-10-14T20:14:27.989Z,5.10
2022-10-14T20:16:56.625Z,4.85
2022-10-14T20:19:25.330Z,4.90
2022-10-14T20:21:53.980Z,5.70
2022-10-14T20:24:22.602Z,4.72
2022-10-14T20:26:52.576Z,4.70
2022-10-14T20:29:21.199Z,5.00
2022-10-14T20:31:49.874Z,4.72
2022-10-14T20:34:18.458Z,4.65
2022-10-14T20:36:47.117Z,5.82
2022-10-14T20:39:15.693Z,5.90
2022-10-14T20:41:44.429Z,5.80
2022-10-14T20:44:14.446Z,5.97
2022-10-14T20:46:43.097Z,5.70
2022-10-14T20:49:12.267Z,5.53
2022-10-14T20:51:41.209Z,5.15
2022-10-14T20:54:11.860Z,5.70
2022-10-14T20:56:40.641Z,5.90
2022-10-14T20:59:13.258Z,6.30
2022-10-14T21:01:43.062Z,5.65
2022-10-14T21:04:12.080Z,5.20
2022-10-14T21:06:41.206Z,5.45
2022-10-14T21:09:10.752Z,5.18
2022-10-14T21:11:39.417Z,4.93
2022-10-14T21:14:08.026Z,4.70
2022-10-14T21:16:39.858Z,5.10
2022-10-14T21:19:11.172Z,4.70
2022-10-14T21:21:42.814Z,4.65
2022-10-14T21:24:14.508Z,4.38
2022-10-14T21:26:42.804Z,4.72
2022-10-14T21:29:11.757Z,4.97
2022-10-14T21:31:40.935Z,4.78
2022-10-14T21:34:12.512Z,5.00
2022-10-14T21:36:42.043Z,4.93
2022-10-14T21:39:13.375Z,5.30
2022-10-14T21:41:43.344Z,5.00
2022-10-14T21:44:16.358Z,5.72
2022-10-14T21:46:45.225Z,4.93
2022-10-14T21:49:15.584Z,5.97
2022-10-14T21:51:44.223Z,5.38
2022-10-14T21:54:13.180Z,6.22
2022-10-14T21:56:41.576Z,5.32
2022-10-14T21:59:10.561Z,6.13
2022-10-14T22:01:39.348Z,5.45
2022-10-14T22:04:08.449Z,6.13
2022-10-14T22:06:38.752Z,6.25
2022-10-14T22:09:09.015Z,6.78
2022-10-14T22:11:40.131Z,6.68
2022-10-14T22:14:13.373Z,6.88
2022-10-14T22:16:42.265Z,7.70
2022-10-14T22:19:13.499Z,7.15
2022-10-14T22:21:46.189Z,6.63
2022-10-14T22:24:15.050Z,7.32
2022-10-14T22:26:43.899Z,6.88
2022-10-14T22:29:14.830Z,6.78
2022-10-14T22:31:43.725Z,8.10
2022-10-14T22:34:14.340Z,7.82
2022-10-14T22:36:44.927Z,8.23
2022-10-14T22:39:17.307Z,8.13
2022-10-14T22:41:46.010Z,7.88
2022-10-14T22:44:14.301Z,6.90
2022-10-14T22:46:42.954Z,7.68
2022-10-14T22:49:11.384Z,7.55
2022-10-14T22:51:41.313Z,8.00
2022-10-14T22:54:11.624Z,7.70
2022-10-14T22:56:40.916Z,8.15
2022-10-14T22:59:11.297Z,7.68
2022-10-14T23:01:41.280Z,7.90
2022-10-14T23:04:10.797Z,7.53
2022-10-14T23:06:40.302Z,7.68
2022-10-14T23:09:10.295Z,7.25
2022-10-14T23:11:39.489Z,6.80
2022-10-14T23:14:08.225Z,7.10
2022-10-14T23:16:37.297Z,6.40
2022-10-14T23:19:05.932Z,6.90
2022-10-14T23:21:36.261Z,6.55
2022-10-14T23:24:07.479Z,6.88
2022-10-14T23:26:37.925Z,7.25
2022-10-14T23:29:09.828Z,7.00
2022-10-14T23:31:40.124Z,6.25
2022-10-14T23:34:13.100Z,6.32
2022-10-14T23:36:42.404Z,5.60
2022-10-14T23:39:11.905Z,4.95
2022-10-14T23:41:41.731Z,5.07
2022-10-14T23:44:12.101Z,5.45
2022-10-14T23:46:40.722Z,4.50
2022-10-14T23:49:24.947Z,4.57
2022-10-14T23:51:55.230Z,4.28
2022-10-14T23:54:23.931Z,4.15
2022-10-14T23:56:53.928Z,4.10
2022-10-14T23:59:22.642Z,3.97
